Terminal Aerodrome Forecast
Issued by NWS Tallahassee, FL

Home | Current Version | Previous Version | Text Only | Print | Product List | Glossary On
Versions: 1 2 3 4 5 6 7 8 9 10 11 12 13 14 15
263
FTUS42 KTAE 271125
TAFTLH
TAF
KTLH 271125Z 2712/2812 11005KT P6SM SKC WS010/15035KT
     FM271400 15006KT P6SM SKC
     FM271600 15010KT P6SM BKN035
     FM280700 00000KT 1SM BR OVC004=

USA.gov is the U.S. government's official web portal to all federal, state and local government web resources and services.